Time;durP1;ratioP1;P1;durP2;ratioP2;P2;SDS_P1;SDS_P2;PMS_P1;PMS_P2;Temp;Humidity;BMP_temperature;BMP_pressure;BME280_temperature;BME280_humidity;BME280_pressure;Samples;Min_cycle;Max_cycle;Signal;HPM_P1;HPM_P2
2022/10/14 00:00:32;;;;;;;13.37;7.60;;;;;;;;;;5072115;28;20582;-77
2022/10/14 00:02:59;;;;;;;9.23;7.37;;;;;;;;;;5072101;28;20480;-77
2022/10/14 00:05:27;;;;;;;7.53;6.80;;;;;;;;;;5072362;28;20456;-75
2022/10/14 00:07:54;;;;;;;8.03;7.23;;;;;;;;;;5073491;28;20471;-78
2022/10/14 00:10:22;;;;;;;9.30;8.40;;;;;;;;;;5073444;28;20471;-78
2022/10/14 00:12:50;;;;;;;12.73;7.73;;;;;;;;;;5071210;28;20453;-77
2022/10/14 00:15:17;;;;;;;9.77;7.87;;;;;;;;;;5072683;28;20452;-77
2022/10/14 00:17:44;;;;;;;8.57;7.10;;;;;;;;;;5074180;28;20476;-77
2022/10/14 00:20:12;;;;;;;7.77;7.07;;;;;;;;;;5072390;28;20469;-77
2022/10/14 00:22:39;;;;;;;11.57;7.47;;;;;;;;;;5071117;28;20452;-78
2022/10/14 00:25:06;;;;;;;8.53;7.83;;;;;;;;;;5071809;28;20437;-76
2022/10/14 00:27:34;;;;;;;8.30;7.50;;;;;;;;;;5071811;28;20476;-78
2022/10/14 00:30:01;;;;;;;11.50;8.30;;;;;;;;;;5071628;28;20882;-76
2022/10/14 00:32:28;;;;;;;11.67;7.77;;;;;;;;;;5071859;28;20452;-77
2022/10/14 00:34:55;;;;;;;8.47;7.50;;;;;;;;;;5071362;28;20471;-77
2022/10/14 00:37:22;;;;;;;11.93;8.10;;;;;;;;;;5071320;28;20956;-78
2022/10/14 00:39:49;;;;;;;11.90;8.00;;;;;;;;;;5071832;28;20440;-76
2022/10/14 00:42:16;;;;;;;8.30;6.83;;;;;;;;;;5071768;28;20551;-76
2022/10/14 00:45:05;;;;;;;8.67;7.97;;;;;;;;;;5069615;28;20483;-76
2022/10/14 00:47:33;;;;;;;10.63;8.40;;;;;;;;;;5071579;28;20433;-77
2022/10/14 00:50:00;;;;;;;8.67;7.83;;;;;;;;;;5071442;28;20461;-77
2022/10/14 00:52:28;;;;;;;9.43;8.50;;;;;;;;;;5070903;28;20480;-77
2022/10/14 00:54:57;;;;;;;11.40;8.70;;;;;;;;;;5070786;28;20812;-78
2022/10/14 00:57:25;;;;;;;9.00;8.10;;;;;;;;;;5071303;28;20449;-76
2022/10/14 00:59:53;;;;;;;10.97;8.40;;;;;;;;;;5071816;28;20948;-77
2022/10/14 01:02:21;;;;;;;11.33;8.00;;;;;;;;;;5071354;28;20802;-76
2022/10/14 01:04:48;;;;;;;8.90;8.00;;;;;;;;;;5071159;28;20476;-79
2022/10/14 01:07:20;;;;;;;9.20;7.33;;;;;;;;;;5071832;28;20437;-77
2022/10/14 01:09:52;;;;;;;8.37;7.63;;;;;;;;;;5071704;28;20490;-77
2022/10/14 01:12:26;;;;;;;8.40;7.70;;;;;;;;;;5062820;28;20947;-76
2022/10/14 01:14:58;;;;;;;8.87;7.63;;;;;;;;;;5053925;28;20452;-78
2022/10/14 01:17:30;;;;;;;10.73;8.20;;;;;;;;;;5053002;28;20445;-76
2022/10/14 01:20:08;;;;;;;9.80;8.50;;;;;;;;;;5065163;28;20433;-76
2022/10/14 01:22:36;;;;;;;12.30;8.70;;;;;;;;;;5076464;28;20414;-76
2022/10/14 01:25:08;;;;;;;14.63;7.97;;;;;;;;;;5075936;28;20465;-76
2022/10/14 01:27:54;;;;;;;8.30;7.50;;;;;;;;;;5051447;28;20441;-77
2022/10/14 01:30:23;;;;;;;9.20;8.30;;;;;;;;;;5050521;28;20989;-77
2022/10/14 01:33:05;;;;;;;8.87;8.00;;;;;;;;;;5050112;28;20454;-76
2022/10/14 01:35:37;;;;;;;10.90;7.80;;;;;;;;;;5050632;28;20456;-76
2022/10/14 01:38:09;;;;;;;8.47;7.63;;;;;;;;;;5050267;28;20472;-76
2022/10/14 01:40:39;;;;;;;8.40;7.03;;;;;;;;;;5050111;28;20776;-75
2022/10/14 01:43:07;;;;;;;8.23;7.37;;;;;;;;;;5049343;28;20476;-78
2022/10/14 01:45:38;;;;;;;8.37;7.60;;;;;;;;;;5050011;28;20902;-76
2022/10/14 01:48:06;;;;;;;9.00;8.10;;;;;;;;;;5049972;28;20476;-75
2022/10/14 01:50:34;;;;;;;8.27;7.60;;;;;;;;;;5049666;28;20461;-77
2022/10/14 01:53:03;;;;;;;8.70;7.90;;;;;;;;;;5049339;28;20445;-76
2022/10/14 01:55:33;;;;;;;10.93;7.97;;;;;;;;;;5053948;28;20945;-76
2022/10/14 01:58:00;;;;;;;9.03;8.13;;;;;;;;;;5056452;28;20465;-76
2022/10/14 02:00:27;;;;;;;8.80;8.00;;;;;;;;;;5056960;28;20504;-76
2022/10/14 02:02:56;;;;;;;13.23;8.27;;;;;;;;;;5055928;28;20452;-78
2022/10/14 02:05:27;;;;;;;10.30;8.07;;;;;;;;;;5056872;28;20485;-76
2022/10/14 02:07:58;;;;;;;12.30;7.90;;;;;;;;;;5056846;28;20797;-76
2022/10/14 02:10:31;;;;;;;12.97;8.10;;;;;;;;;;5056739;28;20457;-76
2022/10/14 02:13:04;;;;;;;9.63;8.27;;;;;;;;;;5055853;28;20441;-77
2022/10/14 02:15:33;;;;;;;8.47;7.77;;;;;;;;;;5056745;28;20429;-76
2022/10/14 02:18:06;;;;;;;8.60;7.80;;;;;;;;;;5056485;28;20445;-78
2022/10/14 02:20:36;;;;;;;7.33;6.63;;;;;;;;;;5056558;28;20501;-76
2022/10/14 02:23:07;;;;;;;7.40;6.70;;;;;;;;;;5055876;28;20451;-75
2022/10/14 02:25:35;;;;;;;9.40;7.67;;;;;;;;;;5056327;28;20480;-75
2022/10/14 02:28:03;;;;;;;10.13;8.37;;;;;;;;;;5056193;28;20816;-75
2022/10/14 02:30:33;;;;;;;7.70;6.90;;;;;;;;;;5056480;28;20457;-75
2022/10/14 02:33:01;;;;;;;8.20;6.97;;;;;;;;;;5055565;28;20441;-76
2022/10/14 02:35:31;;;;;;;7.30;6.37;;;;;;;;;;5056320;28;20441;-76
2022/10/14 02:37:58;;;;;;;9.13;7.37;;;;;;;;;;5056080;28;20445;-77
2022/10/14 02:40:28;;;;;;;8.20;7.53;;;;;;;;;;5056093;28;21034;-75
2022/10/14 02:42:55;;;;;;;8.30;7.50;;;;;;;;;;5056046;28;20445;-77
2022/10/14 02:45:25;;;;;;;10.00;6.13;;;;;;;;;;5055954;28;20473;-75
2022/10/14 02:47:52;;;;;;;8.07;6.50;;;;;;;;;;5056364;28;20456;-76
2022/10/14 02:50:19;;;;;;;9.77;6.97;;;;;;;;;;5056282;28;20465;-75
2022/10/14 02:52:47;;;;;;;12.13;6.83;;;;;;;;;;5055689;28;20445;-75
2022/10/14 02:55:14;;;;;;;8.13;7.43;;;;;;;;;;5056015;28;20437;-76
2022/10/14 02:57:41;;;;;;;9.83;7.50;;;;;;;;;;5056398;28;20456;-78
2022/10/14 03:00:09;;;;;;;8.77;7.50;;;;;;;;;;5055516;28;20461;-76
2022/10/14 03:02:36;;;;;;;9.40;7.03;;;;;;;;;;5055346;28;20433;-76
2022/10/14 03:05:03;;;;;;;7.47;6.20;;;;;;;;;;5056313;28;20480;-77
2022/10/14 03:07:30;;;;;;;8.63;7.77;;;;;;;;;;5052751;28;20441;-76
2022/10/14 03:09:59;;;;;;;7.83;7.17;;;;;;;;;;5052533;28;20457;-75
2022/10/14 03:12:26;;;;;;;9.70;7.77;;;;;;;;;;5063302;28;20454;-76
2022/10/14 03:14:53;;;;;;;8.20;7.40;;;;;;;;;;5072520;28;20506;-76
2022/10/14 03:17:20;;;;;;;8.50;7.90;;;;;;;;;;5090783;28;20421;-76
2022/10/14 03:19:47;;;;;;;7.87;7.10;;;;;;;;;;5098314;28;20440;-75
2022/10/14 03:22:14;;;;;;;7.60;7.00;;;;;;;;;;5091643;28;20437;-75
2022/10/14 03:24:41;;;;;;;8.80;7.93;;;;;;;;;;5072275;28;20469;-75
2022/10/14 03:27:10;;;;;;;9.00;8.30;;;;;;;;;;5072427;28;20452;-77
2022/10/14 03:29:37;;;;;;;10.17;9.23;;;;;;;;;;5072418;28;20448;-75
2022/10/14 03:32:04;;;;;;;14.37;10.50;;;;;;;;;;5072520;28;20445;-75
2022/10/14 03:34:31;;;;;;;16.07;10.63;;;;;;;;;;5071779;28;20458;-77
2022/10/14 03:36:58;;;;;;;12.13;10.60;;;;;;;;;;5072585;28;20456;-76
2022/10/14 03:39:25;;;;;;;11.80;10.60;;;;;;;;;;5072392;28;20453;-77
2022/10/14 03:41:52;;;;;;;11.70;10.47;;;;;;;;;;5072090;28;20835;-77
2022/10/14 03:44:20;;;;;;;13.60;11.13;;;;;;;;;;5071422;28;20488;-76
2022/10/14 03:46:48;;;;;;;11.50;10.37;;;;;;;;;;5072245;28;20441;-76
2022/10/14 03:49:15;;;;;;;12.70;10.97;;;;;;;;;;5072137;28;20463;-76
2022/10/14 03:51:42;;;;;;;11.67;10.67;;;;;;;;;;5072158;28;20456;-76
2022/10/14 03:54:09;;;;;;;12.67;11.37;;;;;;;;;;5071445;28;20445;-76
2022/10/14 03:56:36;;;;;;;13.70;12.40;;;;;;;;;;5076325;28;20445;-76
2022/10/14 03:59:03;;;;;;;12.73;11.40;;;;;;;;;;5080567;28;20445;-76
2022/10/14 04:01:31;;;;;;;13.10;11.60;;;;;;;;;;5080185;28;20465;-77
2022/10/14 04:03:58;;;;;;;12.93;11.80;;;;;;;;;;5081570;28;20517;-76
2022/10/14 04:06:25;;;;;;;13.17;11.97;;;;;;;;;;5079886;28;20452;-75
2022/10/14 04:08:52;;;;;;;13.83;12.43;;;;;;;;;;5078048;28;20563;-75
2022/10/14 04:11:19;;;;;;;14.80;12.07;;;;;;;;;;5071411;28;20456;-76
2022/10/14 04:13:46;;;;;;;14.60;13.20;;;;;;;;;;5051644;28;20453;-76
2022/10/14 04:16:13;;;;;;;13.90;12.50;;;;;;;;;;5051702;28;20448;-77
2022/10/14 04:18:42;;;;;;;17.83;13.33;;;;;;;;;;5050820;28;20449;-77
2022/10/14 04:21:11;;;;;;;13.40;12.10;;;;;;;;;;5051499;28;20466;-76
2022/10/14 04:23:38;;;;;;;13.77;12.47;;;;;;;;;;5051187;28;20450;-76
2022/10/14 04:26:06;;;;;;;13.80;12.50;;;;;;;;;;5051574;28;20488;-75
2022/10/14 04:28:33;;;;;;;14.17;12.73;;;;;;;;;;5051519;28;20464;-76
2022/10/14 04:31:00;;;;;;;16.00;12.23;;;;;;;;;;5051278;28;20991;-77
2022/10/14 04:33:27;;;;;;;14.70;12.70;;;;;;;;;;5051019;28;20965;-77
2022/10/14 04:35:59;;;;;;;14.23;12.83;;;;;;;;;;5051644;28;20445;-76
2022/10/14 04:38:26;;;;;;;14.10;12.70;;;;;;;;;;5051457;28;20441;-76
2022/10/14 04:40:53;;;;;;;18.90;17.00;;;;;;;;;;5051160;28;20809;-77
2022/10/14 04:43:20;;;;;;;16.57;14.00;;;;;;;;;;5050404;28;20473;-77
2022/10/14 04:45:47;;;;;;;15.33;13.73;;;;;;;;;;5062765;28;21111;-76
2022/10/14 04:48:14;;;;;;;15.50;13.80;;;;;;;;;;5065871;28;20468;-77
2022/10/14 04:50:42;;;;;;;16.10;14.53;;;;;;;;;;5070255;28;20461;-77
2022/10/14 04:53:10;;;;;;;13.27;12.07;;;;;;;;;;5070307;28;20456;-76
2022/10/14 04:55:37;;;;;;;17.03;13.00;;;;;;;;;;5070713;28;20528;-75
2022/10/14 04:58:05;;;;;;;16.53;13.67;;;;;;;;;;5071599;28;20449;-76
2022/10/14 05:00:32;;;;;;;20.23;14.57;;;;;;;;;;5071992;28;20463;-76
2022/10/14 05:02:59;;;;;;;15.60;13.70;;;;;;;;;;5072087;28;20437;-76
2022/10/14 05:05:26;;;;;;;17.87;14.50;;;;;;;;;;5074050;28;20476;-76
2022/10/14 05:07:58;;;;;;;16.07;14.23;;;;;;;;;;5074065;28;20824;-77
2022/10/14 05:10:27;;;;;;;14.63;13.30;;;;;;;;;;5071776;28;20456;-76
2022/10/14 05:12:54;;;;;;;16.33;13.77;;;;;;;;;;5070828;28;20433;-76
2022/10/14 05:15:21;;;;;;;20.60;14.10;;;;;;;;;;5071181;28;20444;-76
2022/10/14 05:17:48;;;;;;;19.03;14.40;;;;;;;;;;5070809;28;20451;-77
2022/10/14 05:20:15;;;;;;;16.43;12.97;;;;;;;;;;5070782;28;20559;-76
2022/10/14 05:22:44;;;;;;;14.13;12.70;;;;;;;;;;5069902;28;20443;-77
2022/10/14 05:25:11;;;;;;;16.03;14.30;;;;;;;;;;5070491;28;20710;-77
2022/10/14 05:27:40;;;;;;;15.57;13.80;;;;;;;;;;5070711;28;20449;-77
2022/10/14 05:30:08;;;;;;;17.43;14.13;;;;;;;;;;5069948;28;20838;-77
2022/10/14 05:32:35;;;;;;;16.50;15.00;;;;;;;;;;5069900;28;20480;-76
2022/10/14 05:35:02;;;;;;;16.97;14.73;;;;;;;;;;5070487;28;20498;-78
2022/10/14 05:37:30;;;;;;;14.93;13.40;;;;;;;;;;5070454;28;20436;-77
2022/10/14 05:39:57;;;;;;;15.30;13.80;;;;;;;;;;5070450;28;20464;-76
2022/10/14 05:42:24;;;;;;;14.40;13.20;;;;;;;;;;5070438;28;20544;-77
2022/10/14 05:44:52;;;;;;;16.20;14.60;;;;;;;;;;5069666;28;20483;-77
2022/10/14 05:47:19;;;;;;;14.90;13.40;;;;;;;;;;5070218;28;20440;-79
2022/10/14 05:49:46;;;;;;;16.00;13.13;;;;;;;;;;5070342;28;20451;-77
2022/10/14 05:52:13;;;;;;;20.00;13.93;;;;;;;;;;5070302;28;20811;-77
2022/10/14 05:54:40;;;;;;;15.07;13.57;;;;;;;;;;5069813;28;20459;-77
2022/10/14 05:57:08;;;;;;;15.60;14.20;;;;;;;;;;5070225;28;20473;-78
2022/10/14 05:59:35;;;;;;;16.17;14.00;;;;;;;;;;5070355;28;20459;-78
2022/10/14 06:02:04;;;;;;;15.37;13.87;;;;;;;;;;5070108;28;20489;-77
2022/10/14 06:04:31;;;;;;;15.80;14.30;;;;;;;;;;5069775;28;20449;-78
2022/10/14 06:06:59;;;;;;;15.30;13.80;;;;;;;;;;5070515;28;20440;-77
2022/10/14 06:09:26;;;;;;;20.70;17.40;;;;;;;;;;5070167;28;20452;-77
2022/10/14 06:11:53;;;;;;;18.97;15.67;;;;;;;;;;5069963;28;20833;-78
2022/10/14 06:14:20;;;;;;;17.13;13.37;;;;;;;;;;5069222;28;20962;-76
2022/10/14 06:16:49;;;;;;;14.70;13.30;;;;;;;;;;5070211;28;20439;-77
2022/10/14 06:19:18;;;;;;;15.93;14.27;;;;;;;;;;5070154;28;20448;-77
2022/10/14 06:21:45;;;;;;;17.30;14.10;;;;;;;;;;5069984;28;20812;-77
2022/10/14 06:24:12;;;;;;;15.37;13.97;;;;;;;;;;5069285;28;20448;-77
2022/10/14 06:26:39;;;;;;;15.20;13.80;;;;;;;;;;5070206;28;20476;-77
2022/10/14 06:29:06;;;;;;;16.40;14.70;;;;;;;;;;5070246;28;20456;-77
2022/10/14 06:31:33;;;;;;;19.20;15.60;;;;;;;;;;5070217;28;20472;-77
2022/10/14 06:34:01;;;;;;;19.67;15.07;;;;;;;;;;5070253;28;20452;-78
2022/10/14 06:36:29;;;;;;;17.50;13.80;;;;;;;;;;5070743;28;20440;-77
2022/10/14 06:38:56;;;;;;;15.83;14.20;;;;;;;;;;5070617;28;20552;-77
2022/10/14 06:41:23;;;;;;;13.80;12.50;;;;;;;;;;5068285;28;20465;-78
2022/10/14 06:43:50;;;;;;;14.10;11.83;;;;;;;;;;5063074;28;20433;-77
2022/10/14 06:46:17;;;;;;;12.83;11.63;;;;;;;;;;5085616;28;20963;-77
2022/10/14 06:48:44;;;;;;;12.73;11.30;;;;;;;;;;5091778;28;20453;-77
2022/10/14 06:51:11;;;;;;;18.27;12.70;;;;;;;;;;5091975;28;20470;-78
2022/10/14 06:53:40;;;;;;;12.23;11.03;;;;;;;;;;5092390;28;20454;-77
2022/10/14 06:56:10;;;;;;;12.30;11.07;;;;;;;;;;5077929;28;20441;-77
2022/10/14 06:58:37;;;;;;;13.30;11.40;;;;;;;;;;5074389;28;20444;-77
2022/10/14 07:01:04;;;;;;;15.00;11.57;;;;;;;;;;5073625;28;20465;-78
2022/10/14 07:03:31;;;;;;;13.83;12.27;;;;;;;;;;5073032;28;20451;-76
2022/10/14 07:05:58;;;;;;;18.00;11.50;;;;;;;;;;5072704;28;21002;-78
2022/10/14 07:08:25;;;;;;;14.03;12.37;;;;;;;;;;5073760;28;20444;-77
2022/10/14 07:10:54;;;;;;;15.30;13.17;;;;;;;;;;5073088;28;20476;-75
2022/10/14 07:13:21;;;;;;;12.50;11.30;;;;;;;;;;5072986;28;20546;-79
2022/10/14 07:15:48;;;;;;;13.37;11.80;;;;;;;;;;5072551;28;20925;-77
2022/10/14 07:18:15;;;;;;;13.30;12.00;;;;;;;;;;5062355;28;20523;-78
2022/10/14 07:20:42;;;;;;;12.93;11.70;;;;;;;;;;5055661;28;20464;-76
2022/10/14 07:23:09;;;;;;;13.00;11.70;;;;;;;;;;5072216;28;20516;-77
2022/10/14 07:25:36;;;;;;;13.10;11.70;;;;;;;;;;5072948;28;20477;-77
2022/10/14 07:28:05;;;;;;;12.13;10.90;;;;;;;;;;5072678;28;20445;-76
2022/10/14 07:30:33;;;;;;;13.67;10.80;;;;;;;;;;5072668;28;21070;-77
2022/10/14 07:33:00;;;;;;;12.17;10.00;;;;;;;;;;5071951;28;20433;-77
2022/10/14 07:35:27;;;;;;;10.90;9.90;;;;;;;;;;5072847;28;20450;-76
2022/10/14 07:37:55;;;;;;;11.37;10.20;;;;;;;;;;5072657;28;20445;-77
2022/10/14 07:40:22;;;;;;;11.10;9.83;;;;;;;;;;5072323;28;20836;-78
2022/10/14 07:42:49;;;;;;;10.27;9.13;;;;;;;;;;5072306;28;20453;-77
2022/10/14 07:45:19;;;;;;;11.43;10.03;;;;;;;;;;5074515;28;20476;-77
2022/10/14 07:47:48;;;;;;;11.70;9.90;;;;;;;;;;5072659;28;20872;-76
2022/10/14 07:50:15;;;;;;;10.70;9.70;;;;;;;;;;5072607;28;20465;-78
2022/10/14 07:52:42;;;;;;;11.17;10.07;;;;;;;;;;5071679;28;20452;-77
2022/10/14 07:55:09;;;;;;;9.80;8.93;;;;;;;;;;5071842;28;20456;-77
2022/10/14 07:57:36;;;;;;;10.77;9.83;;;;;;;;;;5072453;28;20456;-76
2022/10/14 08:00:04;;;;;;;11.30;10.20;;;;;;;;;;5068469;28;20465;-78
2022/10/14 08:02:32;;;;;;;12.40;10.40;;;;;;;;;;5069715;28;20951;-79
2022/10/14 08:05:00;;;;;;;12.80;10.57;;;;;;;;;;5069824;28;20457;-78
2022/10/14 08:07:28;;;;;;;10.37;9.30;;;;;;;;;;5062074;28;20448;-78
2022/10/14 08:09:55;;;;;;;10.83;9.70;;;;;;;;;;5068767;28;20444;-78
2022/10/14 08:12:22;;;;;;;12.00;8.63;;;;;;;;;;5071876;28;21158;-78
2022/10/14 08:14:50;;;;;;;10.50;9.00;;;;;;;;;;5071676;28;20484;-77
2022/10/14 08:17:17;;;;;;;11.13;10.03;;;;;;;;;;5072204;28;20432;-77
2022/10/14 08:19:45;;;;;;;13.03;10.60;;;;;;;;;;5072016;28;20429;-77
2022/10/14 08:22:12;;;;;;;11.73;9.33;;;;;;;;;;5072222;28;20433;-77
2022/10/14 08:24:39;;;;;;;13.40;10.40;;;;;;;;;;5072104;28;20441;-78
2022/10/14 08:27:06;;;;;;;11.77;10.57;;;;;;;;;;5074850;28;20485;-77
2022/10/14 08:29:34;;;;;;;11.57;10.17;;;;;;;;;;5074901;28;20504;-77
2022/10/14 08:32:01;;;;;;;11.30;10.27;;;;;;;;;;5074012;28;20555;-77
2022/10/14 08:34:28;;;;;;;10.93;9.93;;;;;;;;;;5078671;28;20448;-77
2022/10/14 08:36:56;;;;;;;14.77;12.00;;;;;;;;;;5071860;28;20444;-77
2022/10/14 08:39:23;;;;;;;12.10;10.80;;;;;;;;;;5071625;28;20498;-77
2022/10/14 08:42:02;;;;;;;11.70;10.13;;;;;;;;;;5071756;28;20472;-78
2022/10/14 08:44:34;;;;;;;13.17;9.70;;;;;;;;;;5071265;28;20441;-77
2022/10/14 08:47:02;;;;;;;18.40;9.87;;;;;;;;;;5071521;28;20472;-77
2022/10/14 08:49:33;;;;;;;9.43;8.40;;;;;;;;;;5071815;28;20862;-76
2022/10/14 08:52:04;;;;;;;8.97;8.07;;;;;;;;;;5071582;28;20460;-76
2022/10/14 08:54:35;;;;;;;12.80;8.37;;;;;;;;;;5070835;28;20425;-77
2022/10/14 08:57:03;;;;;;;11.43;8.27;;;;;;;;;;5070846;28;20459;-77
2022/10/14 08:59:30;;;;;;;8.00;6.77;;;;;;;;;;5070826;28;20935;-77
2022/10/14 09:01:59;;;;;;;6.83;6.23;;;;;;;;;;5070717;28;21055;-76
2022/10/14 09:04:27;;;;;;;7.10;6.40;;;;;;;;;;5069492;28;20452;-77
2022/10/14 09:06:54;;;;;;;8.73;6.77;;;;;;;;;;5070833;28;20484;-77
2022/10/14 09:09:25;;;;;;;9.07;5.90;;;;;;;;;;5070651;28;20439;-77
2022/10/14 09:11:53;;;;;;;6.47;5.87;;;;;;;;;;5070620;28;20473;-77
2022/10/14 09:14:22;;;;;;;6.80;6.20;;;;;;;;;;5070256;28;20997;-77
2022/10/14 09:16:52;;;;;;;6.80;6.20;;;;;;;;;;5071636;28;20440;-78
2022/10/14 09:19:23;;;;;;;6.87;6.10;;;;;;;;;;5070571;28;20984;-77
2022/10/14 09:21:51;;;;;;;8.03;6.13;;;;;;;;;;5070716;28;20567;-77
2022/10/14 09:24:20;;;;;;;5.83;5.33;;;;;;;;;;5070299;28;21184;-77
2022/10/14 09:26:49;;;;;;;4.83;4.53;;;;;;;;;;5066056;28;20565;-76
2022/10/14 09:29:21;;;;;;;5.10;4.60;;;;;;;;;;5070540;28;20456;-77
2022/10/14 09:31:48;;;;;;;5.33;4.83;;;;;;;;;;5070187;28;20968;-77
2022/10/14 09:34:19;;;;;;;5.53;4.70;;;;;;;;;;5069931;28;20448;-77
2022/10/14 09:36:47;;;;;;;7.90;5.53;;;;;;;;;;5070438;28;20873;-78
2022/10/14 09:39:14;;;;;;;5.50;5.00;;;;;;;;;;5070424;28;20464;-77
2022/10/14 09:41:42;;;;;;;5.33;4.40;;;;;;;;;;5070427;28;20468;-78
2022/10/14 09:44:20;;;;;;;6.40;5.80;;;;;;;;;;5069372;28;20570;-79
2022/10/14 09:46:48;;;;;;;7.50;6.80;;;;;;;;;;5070311;28;20991;-77
2022/10/14 09:49:17;;;;;;;7.27;6.47;;;;;;;;;;5070067;28;20564;-77
2022/10/14 09:51:45;;;;;;;13.43;7.53;;;;;;;;;;5075459;28;20441;-75
2022/10/14 09:54:22;;;;;;;8.90;7.20;;;;;;;;;;5096335;28;20417;-75
2022/10/14 09:56:49;;;;;;;8.13;7.10;;;;;;;;;;5097166;28;20417;-75
2022/10/14 09:59:18;;;;;;;10.00;7.33;;;;;;;;;;5097106;28;20435;-77
2022/10/14 10:01:49;;;;;;;9.73;8.90;;;;;;;;;;5097274;28;20490;-76
2022/10/14 10:04:27;;;;;;;8.43;7.60;;;;;;;;;;5096744;28;20428;-77
2022/10/14 10:06:55;;;;;;;10.33;6.97;;;;;;;;;;5096545;28;20518;-77
2022/10/14 10:09:22;;;;;;;9.00;6.23;;;;;;;;;;5096338;28;20466;-77
2022/10/14 10:11:50;;;;;;;9.17;5.43;;;;;;;;;;5095380;28;20459;-76
2022/10/14 10:14:21;;;;;;;8.63;6.10;;;;;;;;;;5094990;28;20425;-77
2022/10/14 10:16:48;;;;;;;9.90;8.90;;;;;;;;;;5098339;28;20416;-77
2022/10/14 10:19:26;;;;;;;6.43;5.93;;;;;;;;;;5099420;28;20421;-77
2022/10/14 10:21:53;;;;;;;6.67;6.07;;;;;;;;;;5099374;28;20531;-76
2022/10/14 10:24:22;;;;;;;7.10;6.40;;;;;;;;;;5098826;28;20431;-78
2022/10/14 10:26:49;;;;;;;7.50;5.37;;;;;;;;;;5099269;28;20471;-78
2022/10/14 10:29:33;;;;;;;7.20;5.10;;;;;;;;;;5099279;28;20522;-77
2022/10/14 10:32:10;;;;;;;4.90;4.50;;;;;;;;;;5098991;28;20502;-77
2022/10/14 10:34:49;;;;;;;4.83;4.43;;;;;;;;;;5098409;28;20428;-77
2022/10/14 10:37:23;;;;;;;6.00;4.53;;;;;;;;;;5099216;28;20439;-77
2022/10/14 10:39:56;;;;;;;7.23;4.97;;;;;;;;;;5098100;28;20452;-78
2022/10/14 10:42:26;;;;;;;7.10;5.23;;;;;;;;;;5099001;28;20436;-77
2022/10/14 10:45:00;;;;;;;6.70;5.57;;;;;;;;;;5098610;28;20460;-77
2022/10/14 10:47:35;;;;;;;7.27;6.10;;;;;;;;;;5098979;28;20551;-77
2022/10/14 10:50:17;;;;;;;5.97;4.47;;;;;;;;;;5098741;28;20471;-77
2022/10/14 10:52:49;;;;;;;7.47;6.73;;;;;;;;;;5098188;28;20444;-77
2022/10/14 10:55:19;;;;;;;6.50;5.47;;;;;;;;;;5098577;28;20448;-77
2022/10/14 10:57:52;;;;;;;8.40;5.30;;;;;;;;;;5098243;28;20444;-77
2022/10/14 11:00:22;;;;;;;4.73;4.43;;;;;;;;;;5098004;28;20465;-78
2022/10/14 11:03:01;;;;;;;5.03;4.53;;;;;;;;;;5097286;28;20449;-78
2022/10/14 11:05:39;;;;;;;4.93;4.37;;;;;;;;;;5098096;28;21368;-78
2022/10/14 11:14:04;;;;;;;5.10;4.50;;;;;;;;;;5016410;28;20451;-77
2022/10/14 11:16:37;;;;;;;6.60;4.50;;;;;;;;;;5065991;28;20430;-77
2022/10/14 11:19:09;;;;;;;4.70;4.20;;;;;;;;;;5077971;28;20449;-78
2022/10/14 11:21:40;;;;;;;5.40;4.40;;;;;;;;;;5077990;28;20457;-78
2022/10/14 11:24:10;;;;;;;6.17;4.77;;;;;;;;;;5077149;28;20486;-77
2022/10/14 11:26:52;;;;;;;6.77;4.93;;;;;;;;;;5077645;28;20465;-77
2022/10/14 11:29:29;;;;;;;5.40;4.87;;;;;;;;;;5075983;28;20497;-77
2022/10/14 11:32:03;;;;;;;7.43;5.50;;;;;;;;;;5077287;28;20469;-78
2022/10/14 11:34:42;;;;;;;5.30;4.90;;;;;;;;;;5073979;28;20462;-77
2022/10/14 11:37:15;;;;;;;8.20;5.27;;;;;;;;;;5055896;28;20450;-78
2022/10/14 11:39:45;;;;;;;6.60;5.43;;;;;;;;;;5054153;28;20480;-77
2022/10/14 11:42:24;;;;;;;5.17;4.67;;;;;;;;;;5053460;28;20445;-77
2022/10/14 11:44:58;;;;;;;6.83;4.97;;;;;;;;;;5052290;28;20483;-79
2022/10/14 11:47:28;;;;;;;4.90;4.50;;;;;;;;;;5052693;28;20477;-78
2022/10/14 11:49:59;;;;;;;6.00;5.40;;;;;;;;;;5052830;28;20446;-78
2022/10/14 11:52:28;;;;;;;5.30;4.90;;;;;;;;;;5053117;28;20457;-78
2022/10/14 11:54:57;;;;;;;4.87;4.33;;;;;;;;;;5052817;28;20791;-78
2022/10/14 11:57:28;;;;;;;4.17;3.87;;;;;;;;;;5052953;28;21118;-78
2022/10/14 11:59:59;;;;;;;5.40;4.30;;;;;;;;;;5052597;28;20476;-77
2022/10/14 12:02:31;;;;;;;5.17;4.67;;;;;;;;;;5052820;28;20541;-78
2022/10/14 12:05:03;;;;;;;5.30;4.60;;;;;;;;;;5053597;28;20446;-79
2022/10/14 12:07:32;;;;;;;6.60;5.07;;;;;;;;;;5054055;28;20473;-77
2022/10/14 12:10:02;;;;;;;4.73;4.43;;;;;;;;;;5052524;28;20454;-78
2022/10/14 12:12:29;;;;;;;5.10;4.70;;;;;;;;;;5053489;28;20457;-77
2022/10/14 12:14:58;;;;;;;4.43;3.90;;;;;;;;;;5052061;28;20446;-77
2022/10/14 12:17:29;;;;;;;4.43;4.10;;;;;;;;;;5052130;28;21001;-77
2022/10/14 12:19:59;;;;;;;5.13;4.17;;;;;;;;;;5051830;28;20441;-77
2022/10/14 12:22:28;;;;;;;6.37;5.77;;;;;;;;;;5057799;28;20452;-78
2022/10/14 12:25:02;;;;;;;4.00;3.60;;;;;;;;;;5056180;28;20461;-78
2022/10/14 12:27:30;;;;;;;8.50;3.77;;;;;;;;;;5071380;28;20461;-78
2022/10/14 12:29:57;;;;;;;5.80;4.13;;;;;;;;;;5071263;28;20448;-77
2022/10/14 12:32:25;;;;;;;5.60;4.50;;;;;;;;;;5071432;28;20940;-77
2022/10/14 12:34:56;;;;;;;5.07;3.70;;;;;;;;;;5070959;28;20452;-78
2022/10/14 12:37:50;;;;;;;4.83;3.40;;;;;;;;;;5071628;28;20508;-78
2022/10/14 12:40:24;;;;;;;4.63;3.33;;;;;;;;;;5070763;28;20457;-77
2022/10/14 12:42:59;;;;;;;3.53;3.23;;;;;;;;;;5071295;28;20450;-77
2022/10/14 12:45:28;;;;;;;5.30;2.83;;;;;;;;;;5071336;28;20443;-78
2022/10/14 12:48:03;;;;;;;4.43;3.27;;;;;;;;;;5070846;28;21011;-78
2022/10/14 12:50:31;;;;;;;4.43;3.47;;;;;;;;;;5071014;28;20480;-77
2022/10/14 12:53:01;;;;;;;3.70;3.50;;;;;;;;;;5070662;28;20451;-77
2022/10/14 12:55:30;;;;;;;3.67;3.00;;;;;;;;;;5072480;28;20460;-76
2022/10/14 12:57:59;;;;;;;3.10;2.80;;;;;;;;;;5072630;28;20816;-77
2022/10/14 13:00:31;;;;;;;5.33;2.93;;;;;;;;;;5075850;28;20576;-77
2022/10/14 13:03:00;;;;;;;3.20;2.80;;;;;;;;;;5076751;28;20452;-76
2022/10/14 13:05:31;;;;;;;3.30;2.93;;;;;;;;;;5077660;28;20444;-77
2022/10/14 13:08:11;;;;;;;2.20;2.10;;;;;;;;;;5077598;28;20979;-77
2022/10/14 13:10:43;;;;;;;2.87;2.60;;;;;;;;;;5076902;28;20467;-77
2022/10/14 13:13:29;;;;;;;2.87;2.57;;;;;;;;;;5076212;28;20944;-77
2022/10/14 13:15:56;;;;;;;2.90;2.60;;;;;;;;;;5071878;28;20925;-77
2022/10/14 13:18:38;;;;;;;6.43;2.40;;;;;;;;;;5071377;28;20561;-78
2022/10/14 13:21:05;;;;;;;3.13;2.83;;;;;;;;;;5058312;28;20465;-77
2022/10/14 13:23:37;;;;;;;2.53;2.33;;;;;;;;;;5070212;28;20436;-78
2022/10/14 13:26:15;;;;;;;2.20;2.10;;;;;;;;;;5070477;28;21054;-77
2022/10/14 13:28:45;;;;;;;3.43;2.40;;;;;;;;;;5070368;28;20512;-78
2022/10/14 13:31:15;;;;;;;2.40;2.30;;;;;;;;;;5070326;28;20829;-77
2022/10/14 13:33:45;;;;;;;2.73;2.47;;;;;;;;;;5069741;28;20445;-77
2022/10/14 13:36:39;;;;;;;3.37;2.50;;;;;;;;;;5070510;28;20520;-78
2022/10/14 13:39:06;;;;;;;2.73;2.43;;;;;;;;;;5056483;28;20836;-76
2022/10/14 13:41:35;;;;;;;2.60;2.23;;;;;;;;;;5070641;28;20460;-77
2022/10/14 13:44:02;;;;;;;2.90;2.57;;;;;;;;;;5071631;28;20456;-78
2022/10/14 13:46:32;;;;;;;2.33;2.23;;;;;;;;;;5071776;28;20465;-78
2022/10/14 13:49:04;;;;;;;2.40;2.20;;;;;;;;;;5072488;28;20803;-79
2022/10/14 13:51:40;;;;;;;2.17;2.07;;;;;;;;;;5073320;28;21016;-78
2022/10/14 13:54:26;;;;;;;5.17;2.57;;;;;;;;;;5071478;28;20464;-77
2022/10/14 13:57:10;;;;;;;2.50;2.30;;;;;;;;;;5072614;28;20535;-78
2022/10/14 13:59:38;;;;;;;3.00;2.80;;;;;;;;;;5070967;28;20870;-78
2022/10/14 14:02:10;;;;;;;2.20;2.00;;;;;;;;;;5070146;28;21175;-77
2022/10/14 14:04:37;;;;;;;3.07;1.97;;;;;;;;;;5069338;28;20436;-77
2022/10/14 14:07:05;;;;;;;2.20;2.10;;;;;;;;;;5070148;28;20914;-77
2022/10/14 14:09:33;;;;;;;2.20;2.10;;;;;;;;;;5070068;28;20452;-77
2022/10/14 14:12:04;;;;;;;2.30;2.20;;;;;;;;;;5070753;28;20536;-78
2022/10/14 14:14:34;;;;;;;2.30;2.10;;;;;;;;;;5069078;28;20436;-78
2022/10/14 14:17:02;;;;;;;2.90;2.50;;;;;;;;;;5069530;28;20437;-77
2022/10/14 14:19:31;;;;;;;5.00;2.30;;;;;;;;;;5069953;28;20445;-77
2022/10/14 14:22:09;;;;;;;2.73;2.53;;;;;;;;;;5070230;28;20504;-79
2022/10/14 14:24:36;;;;;;;3.80;2.73;;;;;;;;;;5070016;28;20476;-77
2022/10/14 14:27:04;;;;;;;2.47;2.27;;;;;;;;;;5069884;28;20455;-78
2022/10/14 14:29:33;;;;;;;2.60;2.03;;;;;;;;;;5069917;28;20951;-77
2022/10/14 14:32:01;;;;;;;2.50;2.30;;;;;;;;;;5070184;28;20471;-77
2022/10/14 14:34:28;;;;;;;1.90;1.80;;;;;;;;;;5069271;28;20499;-77
2022/10/14 14:36:57;;;;;;;2.23;2.00;;;;;;;;;;5070169;28;20444;-76
2022/10/14 14:39:26;;;;;;;2.50;2.30;;;;;;;;;;5069792;28;20485;-78
2022/10/14 14:41:54;;;;;;;2.70;2.40;;;;;;;;;;5069625;28;20467;-77
2022/10/14 14:44:24;;;;;;;2.73;2.20;;;;;;;;;;5068438;28;20444;-77
2022/10/14 14:46:51;;;;;;;4.23;1.97;;;;;;;;;;5069326;28;20810;-78
2022/10/14 14:49:27;;;;;;;3.40;2.30;;;;;;;;;;5069152;28;20849;-76
2022/10/14 14:51:55;;;;;;;12.47;11.13;;;;;;;;;;5069624;28;20471;-77